createdAt,value
2017-08-21T00:02:08.704Z,8.63
2017-08-21T00:04:36.364Z,10.17
2017-08-21T00:07:04.360Z,7.67
2017-08-21T00:09:32.304Z,6.90
2017-08-21T00:12:00.144Z,7.27
2017-08-21T00:14:27.830Z,8.57
2017-08-21T00:16:55.494Z,6.87
2017-08-21T00:19:23.222Z,7.20
2017-08-21T00:21:51.055Z,7.00
2017-08-21T00:24:18.981Z,7.30
2017-08-21T00:26:46.944Z,7.00
2017-08-21T00:29:15.010Z,7.47
2017-08-21T00:31:42.755Z,7.77
2017-08-21T00:34:10.623Z,7.40
2017-08-21T00:36:38.611Z,7.90
2017-08-21T00:39:06.486Z,8.03
2017-08-21T00:41:34.224Z,7.10
2017-08-21T00:44:02.213Z,6.63
2017-08-21T00:46:30.080Z,6.67
2017-08-21T00:48:58.074Z,8.70
2017-08-21T00:51:26.040Z,7.10
2017-08-21T00:53:53.906Z,6.83
2017-08-21T00:56:21.748Z,8.30
2017-08-21T00:58:49.492Z,8.83
2017-08-21T01:01:17.508Z,10.07
2017-08-21T01:03:45.227Z,9.70
2017-08-21T01:06:13.242Z,9.70
2017-08-21T01:08:40.963Z,9.93
2017-08-21T01:11:08.924Z,10.57
2017-08-21T01:13:36.816Z,9.90
2017-08-21T01:16:04.500Z,10.40
2017-08-21T01:18:32.226Z,9.10
2017-08-21T01:21:00.220Z,9.33
2017-08-21T01:23:28.086Z,10.33
2017-08-21T01:25:55.904Z,9.80
2017-08-21T01:28:23.793Z,9.87
2017-08-21T01:30:51.707Z,11.00
2017-08-21T01:33:19.431Z,10.50
2017-08-21T01:35:47.233Z,11.10
2017-08-21T01:38:15.088Z,11.27
2017-08-21T01:40:42.971Z,11.13
2017-08-21T01:43:11.042Z,11.80
2017-08-21T01:45:38.766Z,10.20
2017-08-21T01:48:06.775Z,10.83
2017-08-21T01:50:34.847Z,10.60
2017-08-21T01:53:02.566Z,11.77
2017-08-21T01:55:30.433Z,10.67
2017-08-21T01:57:58.245Z,10.27
2017-08-21T02:00:25.969Z,10.07
2017-08-21T02:02:53.775Z,10.60
2017-08-21T02:05:21.775Z,11.70
2017-08-21T02:07:49.617Z,11.63
2017-08-21T02:10:17.576Z,10.57
2017-08-21T02:12:45.591Z,11.53
2017-08-21T02:15:13.308Z,12.63
2017-08-21T02:17:40.972Z,10.77
2017-08-21T02:20:08.978Z,10.57
2017-08-21T02:22:36.822Z,11.20
2017-08-21T02:25:04.759Z,10.23
2017-08-21T02:27:32.827Z,13.03
2017-08-21T02:30:00.622Z,12.23
2017-08-21T02:32:28.584Z,11.90
2017-08-21T02:34:56.657Z,11.37
2017-08-21T02:37:24.372Z,12.83
2017-08-21T02:39:52.316Z,13.83
2017-08-21T02:42:20.055Z,39.17
2017-08-21T02:44:47.895Z,17.20
2017-08-21T02:47:15.640Z,12.80
2017-08-21T02:49:43.654Z,15.00
2017-08-21T02:52:11.650Z,16.77
2017-08-21T02:54:39.390Z,13.00
2017-08-21T02:57:07.252Z,13.73
2017-08-21T02:59:34.913Z,16.40
2017-08-21T03:02:02.642Z,13.57
2017-08-21T03:04:30.633Z,14.57
2017-08-21T03:06:58.302Z,16.07
2017-08-21T03:09:26.018Z,12.80
2017-08-21T03:11:53.840Z,37.43
2017-08-21T03:14:21.553Z,13.63
2017-08-21T03:16:49.517Z,16.70
2017-08-21T03:19:17.332Z,16.20
2017-08-21T03:21:45.276Z,15.63
2017-08-21T03:24:13.175Z,13.77
2017-08-21T03:26:41.246Z,14.10
2017-08-21T03:29:09.104Z,13.03
2017-08-21T03:31:36.970Z,19.93
2017-08-21T03:34:05.036Z,12.70
2017-08-21T03:36:32.742Z,13.03
2017-08-21T03:39:00.771Z,11.23
2017-08-21T03:41:28.652Z,12.73
2017-08-21T03:43:56.382Z,13.43
2017-08-21T03:46:23.989Z,13.23
2017-08-21T03:48:51.969Z,12.50
2017-08-21T03:51:19.914Z,12.43
2017-08-21T03:53:47.775Z,12.40
2017-08-21T03:56:15.854Z,12.90
2017-08-21T03:58:43.518Z,13.07
2017-08-21T04:01:11.326Z,11.23
2017-08-21T04:03:39.069Z,12.70
2017-08-21T04:06:06.706Z,12.50
2017-08-21T04:08:34.808Z,11.37
2017-08-21T04:11:02.817Z,12.70
2017-08-21T04:13:30.718Z,11.33
2017-08-21T04:15:58.430Z,12.43
2017-08-21T04:18:26.296Z,14.70
2017-08-21T04:20:54.238Z,11.30
2017-08-21T04:23:22.083Z,12.73
2017-08-21T04:25:49.898Z,11.67
2017-08-21T04:28:17.919Z,13.43
2017-08-21T04:30:45.751Z,12.63
2017-08-21T04:33:13.524Z,12.50
2017-08-21T04:35:41.314Z,16.17
2017-08-21T04:38:09.153Z,11.93
2017-08-21T04:40:36.874Z,11.37
2017-08-21T04:43:04.689Z,11.27
2017-08-21T04:45:32.556Z,11.87
2017-08-21T04:48:00.300Z,12.80
2017-08-21T04:50:28.170Z,11.97
2017-08-21T04:52:55.972Z,10.57
2017-08-21T04:55:23.976Z,11.77
2017-08-21T04:57:51.912Z,12.60
2017-08-21T05:00:19.573Z,10.80
2017-08-21T05:02:47.234Z,11.00
2017-08-21T05:05:15.110Z,9.97
2017-08-21T05:07:42.887Z,9.97
2017-08-21T05:10:10.836Z,9.93
2017-08-21T05:12:38.668Z,10.53
2017-08-21T05:15:06.367Z,8.73
2017-08-21T05:17:34.438Z,9.53
2017-08-21T05:20:02.245Z,9.47
2017-08-21T05:22:30.171Z,7.93
2017-08-21T05:24:58.105Z,7.87
2017-08-21T05:27:26.095Z,9.47
2017-08-21T05:29:53.840Z,9.93
2017-08-21T05:32:21.828Z,8.73
2017-08-21T05:34:49.897Z,7.87
2017-08-21T05:37:17.642Z,9.27
2017-08-21T05:39:45.650Z,7.20
2017-08-21T05:42:13.312Z,7.10
2017-08-21T05:44:40.975Z,8.47
2017-08-21T05:47:09.031Z,8.53
2017-08-21T05:49:36.778Z,7.83
2017-08-21T05:52:04.765Z,7.50
2017-08-21T05:54:32.833Z,7.20
2017-08-21T05:57:00.695Z,8.03
2017-08-21T05:59:28.585Z,7.13
2017-08-21T06:01:56.587Z,7.53
2017-08-21T06:04:24.429Z,7.47
2017-08-21T06:06:52.248Z,6.83
2017-08-21T06:09:20.113Z,7.20
2017-08-21T06:11:47.921Z,7.50
2017-08-21T06:14:15.770Z,7.20
2017-08-21T06:16:43.714Z,7.20
2017-08-21T06:19:11.725Z,7.20
2017-08-21T06:21:39.745Z,6.40
2017-08-21T06:24:07.567Z,6.33
2017-08-21T06:26:35.505Z,8.57
2017-08-21T06:29:03.367Z,6.10
2017-08-21T06:31:31.116Z,8.13
2017-08-21T06:33:59.081Z,7.37
2017-08-21T06:36:26.792Z,6.67
2017-08-21T06:38:54.816Z,7.83
2017-08-21T06:41:22.707Z,6.60
2017-08-21T06:43:50.450Z,7.23
2017-08-21T06:46:18.321Z,9.80
2017-08-21T06:48:46.333Z,7.70
2017-08-21T06:51:14.176Z,8.60
2017-08-21T06:53:42.271Z,11.03
2017-08-21T06:56:10.130Z,15.60
2017-08-21T06:58:37.975Z,11.40
2017-08-21T07:01:05.722Z,7.70
2017-08-21T07:03:33.740Z,6.17
2017-08-21T07:06:01.708Z,8.00
2017-08-21T07:08:29.677Z,8.90
2017-08-21T07:10:57.390Z,6.47
2017-08-21T07:13:25.258Z,8.33
2017-08-21T07:15:53.278Z,6.47
2017-08-21T07:18:21.113Z,6.57
2017-08-21T07:20:48.859Z,6.83
2017-08-21T07:23:16.726Z,6.97
2017-08-21T07:25:44.747Z,5.47
2017-08-21T07:28:12.582Z,7.20
2017-08-21T07:30:40.478Z,6.50
2017-08-21T07:33:08.316Z,6.03
2017-08-21T07:35:36.212Z,6.60
2017-08-21T07:38:04.209Z,5.73
2017-08-21T07:40:32.152Z,5.43
2017-08-21T07:42:59.861Z,6.13
2017-08-21T07:45:27.882Z,4.97
2017-08-21T07:47:55.717Z,5.40
2017-08-21T07:50:23.408Z,6.30
2017-08-21T07:52:51.473Z,8.70
2017-08-21T07:55:19.321Z,5.80
2017-08-21T07:57:47.413Z,7.33
2017-08-21T08:00:15.357Z,5.80
2017-08-21T08:02:43.333Z,5.87
2017-08-21T08:05:11.226Z,8.30
2017-08-21T08:07:39.276Z,6.93
2017-08-21T08:10:07.171Z,6.83
2017-08-21T08:12:34.892Z,6.07
2017-08-21T08:15:02.903Z,5.77
2017-08-21T08:17:30.628Z,5.23
2017-08-21T08:19:58.616Z,5.80
2017-08-21T08:22:26.360Z,6.40
2017-08-21T08:24:54.230Z,5.20
2017-08-21T08:27:22.094Z,6.20
2017-08-21T08:29:49.961Z,5.53
2017-08-21T08:32:17.952Z,6.57
2017-08-21T08:34:45.636Z,4.73
2017-08-21T08:37:13.639Z,6.47
2017-08-21T08:39:41.481Z,5.20
2017-08-21T08:42:09.324Z,4.20
2017-08-21T08:44:37.290Z,5.10
2017-08-21T08:47:05.155Z,5.93
2017-08-21T08:49:33.022Z,5.93
2017-08-21T08:52:01.090Z,4.70
2017-08-21T08:54:28.980Z,6.10
2017-08-21T08:56:56.703Z,7.70
2017-08-21T08:59:24.691Z,4.87
2017-08-21T09:01:52.559Z,5.63
2017-08-21T09:04:20.445Z,5.77
2017-08-21T09:06:48.494Z,6.13
2017-08-21T09:09:16.386Z,6.20
2017-08-21T09:11:44.206Z,6.00
2017-08-21T09:14:12.169Z,5.80
2017-08-21T09:16:40.088Z,6.43
2017-08-21T09:19:07.928Z,6.37
2017-08-21T09:21:35.820Z,5.73
2017-08-21T09:24:03.536Z,6.17
2017-08-21T09:26:31.554Z,6.60
2017-08-21T09:28:59.597Z,5.20
2017-08-21T09:31:27.342Z,6.30
2017-08-21T09:33:55.362Z,6.23
2017-08-21T09:36:23.228Z,6.83
2017-08-21T09:38:51.068Z,6.43
2017-08-21T09:41:18.963Z,5.77
2017-08-21T09:43:47.033Z,5.20
2017-08-21T09:46:14.870Z,6.77
2017-08-21T09:48:42.562Z,4.90
2017-08-21T09:51:10.635Z,6.57
2017-08-21T09:53:38.604Z,5.57
2017-08-21T09:56:06.537Z,5.43
2017-08-21T09:58:34.439Z,7.60
2017-08-21T10:01:02.497Z,4.80
2017-08-21T10:03:30.340Z,5.03
2017-08-21T10:05:58.111Z,6.13
2017-08-21T10:08:26.098Z,6.83
2017-08-21T10:10:53.965Z,6.00
2017-08-21T10:13:22.034Z,6.50
2017-08-21T10:16:17.005Z,5.67
2017-08-21T10:18:44.847Z,6.13
2017-08-21T10:21:12.747Z,5.93
2017-08-21T10:23:40.728Z,6.57
2017-08-21T10:26:08.828Z,6.80
2017-08-21T10:28:36.541Z,6.83
2017-08-21T10:31:04.562Z,7.47
2017-08-21T10:33:32.632Z,6.60
2017-08-21T10:36:00.368Z,6.77
2017-08-21T10:38:28.235Z,7.20
2017-08-21T10:40:56.225Z,7.60
2017-08-21T10:43:23.903Z,6.33
2017-08-21T10:45:51.968Z,6.90
2017-08-21T10:48:20.041Z,7.27
2017-08-21T10:50:47.893Z,6.37
2017-08-21T10:53:15.614Z,5.63
2017-08-21T10:55:43.643Z,6.20
2017-08-21T10:58:11.495Z,6.40
2017-08-21T11:00:39.235Z,10.37
2017-08-21T11:03:07.132Z,6.90
2017-08-21T11:05:34.979Z,6.10
2017-08-21T11:08:02.842Z,5.73
2017-08-21T11:10:30.636Z,5.97
2017-08-21T11:12:58.350Z,4.97
2017-08-21T11:15:26.367Z,5.60
2017-08-21T11:17:54.449Z,6.57
2017-08-21T11:20:22.103Z,5.20
2017-08-21T11:22:49.818Z,4.93
2017-08-21T11:25:17.839Z,4.63
2017-08-21T11:27:45.675Z,4.60
2017-08-21T11:30:13.541Z,4.40
2017-08-21T11:32:41.409Z,5.33
2017-08-21T11:35:09.276Z,5.03
2017-08-21T11:37:37.021Z,5.00
2017-08-21T11:40:05.042Z,4.57
2017-08-21T11:42:32.877Z,4.43
2017-08-21T11:45:00.774Z,3.97
2017-08-21T11:47:28.635Z,5.70
2017-08-21T11:49:56.357Z,4.60
2017-08-21T11:52:24.375Z,4.67
2017-08-21T11:54:52.449Z,4.43
2017-08-21T11:57:20.098Z,5.00
2017-08-21T11:59:47.825Z,5.17
2017-08-21T12:02:15.841Z,4.10
2017-08-21T12:04:43.560Z,5.60
2017-08-21T12:07:11.426Z,5.60
2017-08-21T12:09:39.442Z,6.33
2017-08-21T12:12:07.285Z,6.20
2017-08-21T12:14:34.971Z,5.67
2017-08-21T12:17:02.898Z,4.80
2017-08-21T12:19:30.911Z,4.90
2017-08-21T12:21:58.882Z,5.07
2017-08-21T12:24:26.645Z,4.77
2017-08-21T12:26:54.365Z,6.00
2017-08-21T12:29:22.383Z,4.83
2017-08-21T12:31:50.245Z,5.07
2017-08-21T12:34:17.967Z,5.03
2017-08-21T12:36:45.978Z,5.63
2017-08-21T12:39:13.924Z,4.50
2017-08-21T12:41:41.767Z,5.83
2017-08-21T12:44:09.785Z,5.77
2017-08-21T12:46:37.598Z,6.40
2017-08-21T12:49:05.418Z,6.63
2017-08-21T12:51:33.285Z,5.90
2017-08-21T12:54:01.028Z,5.73
2017-08-21T12:56:28.672Z,6.30
2017-08-21T12:58:56.576Z,6.77
2017-08-21T13:01:24.505Z,7.07
2017-08-21T13:03:52.303Z,7.27
2017-08-21T13:06:20.287Z,8.10
2017-08-21T13:08:48.044Z,6.83
2017-08-21T13:11:15.894Z,7.73
2017-08-21T13:13:43.610Z,7.67
2017-08-21T13:16:11.440Z,7.63
2017-08-21T13:18:39.101Z,9.23
2017-08-21T13:21:06.765Z,8.50
2017-08-21T13:23:34.801Z,10.57
2017-08-21T13:26:02.601Z,8.60
2017-08-21T13:28:30.418Z,10.37
2017-08-21T13:30:58.407Z,10.80
2017-08-21T13:33:26.148Z,9.53
2017-08-21T13:35:54.168Z,7.97
2017-08-21T13:38:22.468Z,9.80
2017-08-21T13:40:50.302Z,9.63
2017-08-21T13:43:17.963Z,10.13
2017-08-21T13:45:45.915Z,9.43
2017-08-21T13:48:13.755Z,10.40
2017-08-21T13:50:41.781Z,8.27
2017-08-21T13:53:09.663Z,9.30
2017-08-21T13:55:37.480Z,8.90
2017-08-21T13:58:05.771Z,10.37
2017-08-21T14:00:33.655Z,9.50
2017-08-21T14:03:01.384Z,9.40
2017-08-21T14:05:29.251Z,10.47
2017-08-21T14:07:57.042Z,9.30
2017-08-21T14:10:24.786Z,9.70
2017-08-21T14:12:52.751Z,9.60
2017-08-21T14:15:20.568Z,9.10
2017-08-21T14:17:48.415Z,9.20
2017-08-21T14:20:16.280Z,9.07
2017-08-21T14:22:44.220Z,10.37
2017-08-21T14:25:11.912Z,9.10
2017-08-21T14:27:39.753Z,9.30
2017-08-21T14:30:07.446Z,9.87
2017-08-21T14:32:35.462Z,9.97
2017-08-21T14:35:03.278Z,8.73
2017-08-21T14:37:31.250Z,11.57
2017-08-21T14:39:59.286Z,9.60
2017-08-21T14:42:27.032Z,9.20
2017-08-21T14:44:55.060Z,12.63
2017-08-21T14:47:22.890Z,11.50
2017-08-21T14:49:50.635Z,11.83
2017-08-21T14:52:18.500Z,10.93
2017-08-21T14:54:46.317Z,12.30
2017-08-21T14:57:14.019Z,12.63
2017-08-21T14:59:42.001Z,12.03
2017-08-21T15:02:09.711Z,11.73
2017-08-21T15:04:37.437Z,10.90
2017-08-21T15:07:05.444Z,13.37
2017-08-21T15:09:33.421Z,12.20
2017-08-21T15:12:01.234Z,12.40
2017-08-21T15:14:29.046Z,12.10
2017-08-21T15:16:56.699Z,11.30
2017-08-21T15:19:24.374Z,13.50
2017-08-21T15:21:52.444Z,9.60
2017-08-21T15:24:20.031Z,9.40
2017-08-21T15:26:47.760Z,9.27
2017-08-21T15:29:15.658Z,11.00
2017-08-21T15:31:43.245Z,11.87
2017-08-21T15:34:11.088Z,13.50
2017-08-21T15:36:39.032Z,14.40
2017-08-21T15:39:06.875Z,14.20
2017-08-21T15:41:34.559Z,16.13
2017-08-21T15:44:02.423Z,15.17
2017-08-21T15:46:30.148Z,15.30
2017-08-21T15:48:57.941Z,17.40
2017-08-21T15:51:25.605Z,14.73
2017-08-21T15:53:53.277Z,16.90
2017-08-21T15:56:21.134Z,17.87
2017-08-21T15:58:48.796Z,15.57
2017-08-21T16:01:16.409Z,17.40
2017-08-21T16:03:44.139Z,17.37
2017-08-21T16:06:11.991Z,18.63
2017-08-21T16:08:39.851Z,18.20
2017-08-21T16:11:07.731Z,17.40
2017-08-21T16:13:35.598Z,18.80
2017-08-21T16:16:03.261Z,17.37
2017-08-21T16:18:30.918Z,19.53
2017-08-21T16:23:31.780Z,18.70
2017-08-21T16:25:59.380Z,19.93
2017-08-21T16:28:27.220Z,44.47
2017-08-21T16:30:54.973Z,21.53
2017-08-21T16:33:22.629Z,20.10
2017-08-21T16:35:50.615Z,17.07
2017-08-21T16:38:18.273Z,18.17
2017-08-21T16:40:46.082Z,18.10
2017-08-21T16:43:13.886Z,18.97
2017-08-21T16:45:41.531Z,18.93
2017-08-21T16:48:09.433Z,19.30
2017-08-21T16:50:37.030Z,17.60
2017-08-21T16:53:05.112Z,19.00
2017-08-21T16:55:32.821Z,20.23
2017-08-21T16:58:00.666Z,19.30
2017-08-21T17:00:28.515Z,19.83
2017-08-21T17:02:57.434Z,18.37
2017-08-21T17:05:25.415Z,23.27
2017-08-21T17:07:53.285Z,23.00
2017-08-21T17:10:20.955Z,22.90
2017-08-21T17:12:48.808Z,19.07
2017-08-21T17:15:16.671Z,18.97
2017-08-21T17:17:44.339Z,18.57
2017-08-21T17:20:12.205Z,18.87
2017-08-21T17:22:40.319Z,19.60
2017-08-21T17:25:07.935Z,20.80
2017-08-21T17:27:35.584Z,21.43
2017-08-21T17:30:03.260Z,19.67
2017-08-21T17:32:30.959Z,18.17
2017-08-21T17:34:58.550Z,20.20
2017-08-21T17:37:26.229Z,26.40
2017-08-21T17:39:53.908Z,18.93
2017-08-21T17:42:21.497Z,19.97
2017-08-21T17:44:49.349Z,20.17
2017-08-21T17:47:17.104Z,20.37
2017-08-21T17:49:44.803Z,21.30
2017-08-21T17:52:12.633Z,18.30
2017-08-21T17:54:40.341Z,20.57
2017-08-21T17:57:08.367Z,19.00
2017-08-21T17:59:36.098Z,18.17
2017-08-21T18:02:03.818Z,19.27
2017-08-21T18:04:31.656Z,20.20
2017-08-21T18:06:59.475Z,17.90
2017-08-21T18:09:27.289Z,15.33
2017-08-21T18:11:54.944Z,16.97
2017-08-21T18:14:22.714Z,18.87
2017-08-21T18:16:50.418Z,18.07
2017-08-21T18:19:18.258Z,16.87
2017-08-21T18:21:46.057Z,17.70
2017-08-21T18:24:13.668Z,18.20
2017-08-21T18:26:41.331Z,18.60
2017-08-21T18:29:08.995Z,17.87
2017-08-21T18:31:37.068Z,17.70
2017-08-21T18:34:04.728Z,17.43
2017-08-21T18:36:32.732Z,16.50
2017-08-21T18:39:00.682Z,17.43
2017-08-21T18:41:28.388Z,19.00
2017-08-21T18:43:56.188Z,18.10
2017-08-21T18:46:24.050Z,15.93
2017-08-21T18:48:51.838Z,16.90
2017-08-21T18:51:19.588Z,17.60
2017-08-21T18:53:47.327Z,15.30
2017-08-21T18:56:15.125Z,17.20
2017-08-21T18:58:43.197Z,14.60
2017-08-21T19:01:11.062Z,14.90
2017-08-21T19:03:39.015Z,14.17
2017-08-21T19:06:06.997Z,15.00
2017-08-21T19:08:34.648Z,14.57
2017-08-21T19:11:02.736Z,14.80
2017-08-21T19:13:30.764Z,14.20
2017-08-21T19:15:58.671Z,15.83
2017-08-21T19:18:26.536Z,13.47
2017-08-21T19:20:54.398Z,14.47
2017-08-21T19:23:22.277Z,16.87
2017-08-21T19:25:50.122Z,12.53
2017-08-21T19:28:17.786Z,12.30
2017-08-21T19:30:45.412Z,16.80
2017-08-21T19:33:13.024Z,14.20
2017-08-21T19:35:40.685Z,14.90
2017-08-21T19:38:08.339Z,13.67
2017-08-21T19:40:35.928Z,14.13
2017-08-21T19:43:03.568Z,12.83
2017-08-21T19:45:31.169Z,12.00
2017-08-21T19:47:58.798Z,13.73
2017-08-21T19:50:26.504Z,13.03
2017-08-21T19:52:54.135Z,14.17
2017-08-21T19:55:21.750Z,12.97
2017-08-21T19:57:49.443Z,11.80
2017-08-21T20:00:17.042Z,11.43
2017-08-21T20:02:44.664Z,11.87
2017-08-21T20:05:12.343Z,10.43
2017-08-21T20:07:39.954Z,10.57
2017-08-21T20:10:07.571Z,11.67
2017-08-21T20:12:35.232Z,9.93
2017-08-21T20:15:02.847Z,10.80
2017-08-21T20:17:30.507Z,10.17
2017-08-21T20:19:58.172Z,11.10
2017-08-21T20:22:25.782Z,11.20
2017-08-21T20:24:53.377Z,9.77
2017-08-21T20:27:21.042Z,10.10
2017-08-21T20:29:48.647Z,10.17
2017-08-21T20:32:16.246Z,9.93
2017-08-21T20:34:43.901Z,9.83
2017-08-21T20:37:11.498Z,9.97
2017-08-21T20:39:39.082Z,8.97
2017-08-21T20:42:06.738Z,8.33
2017-08-21T20:44:34.351Z,8.50
2017-08-21T20:47:01.967Z,8.53
2017-08-21T20:49:29.636Z,8.10
2017-08-21T20:51:57.246Z,7.93
2017-08-21T20:54:24.859Z,7.90
2017-08-21T20:56:52.500Z,8.33
2017-08-21T20:59:20.107Z,7.43
2017-08-21T21:01:47.706Z,7.50
2017-08-21T21:04:15.462Z,8.43
2017-08-21T21:06:43.096Z,7.00
2017-08-21T21:09:10.702Z,5.47
2017-08-21T21:11:38.385Z,6.20
2017-08-21T21:14:05.994Z,6.80
2017-08-21T21:16:33.643Z,6.50
2017-08-21T21:19:01.310Z,5.70
2017-08-21T21:21:28.915Z,6.73
2017-08-21T21:23:56.511Z,6.13
2017-08-21T21:26:24.187Z,6.17
2017-08-21T21:28:51.810Z,6.70
2017-08-21T21:31:19.423Z,5.70
2017-08-21T21:33:47.089Z,6.10
2017-08-21T21:36:14.701Z,6.27
2017-08-21T21:38:42.305Z,7.07
2017-08-21T21:41:09.959Z,5.37
2017-08-21T21:43:37.571Z,6.00
2017-08-21T21:46:05.237Z,5.57
2017-08-21T21:48:32.911Z,5.67
2017-08-21T21:51:00.485Z,6.90
2017-08-21T21:53:28.072Z,6.30
2017-08-21T21:55:55.740Z,5.70
2017-08-21T21:58:23.372Z,5.47
2017-08-21T22:00:50.976Z,6.03
2017-08-21T22:03:18.610Z,5.40
2017-08-21T22:05:46.212Z,5.20
2017-08-21T22:08:14.026Z,5.87
2017-08-21T22:10:42.065Z,6.17
2017-08-21T22:13:09.753Z,5.40
2017-08-21T22:15:37.383Z,4.80
2017-08-21T22:18:05.217Z,5.73
2017-08-21T22:20:33.112Z,5.50
2017-08-21T22:23:00.853Z,5.47
2017-08-21T22:25:28.586Z,5.80
2017-08-21T22:27:56.316Z,6.20
2017-08-21T22:30:23.965Z,5.60
2017-08-21T22:32:51.743Z,5.43
2017-08-21T22:35:19.707Z,5.70
2017-08-21T22:37:47.363Z,5.70
2017-08-21T22:40:15.421Z,4.30
2017-08-21T22:42:43.283Z,5.50
2017-08-21T22:45:10.955Z,4.87
2017-08-21T22:47:38.636Z,5.53
2017-08-21T22:50:06.463Z,4.00
2017-08-21T22:52:34.367Z,4.53
2017-08-21T22:55:02.038Z,4.33
2017-08-21T22:57:29.864Z,4.00
2017-08-21T22:59:57.552Z,4.33
2017-08-21T23:02:25.572Z,4.40
2017-08-21T23:04:53.291Z,4.07
2017-08-21T23:07:21.133Z,4.40
2017-08-21T23:09:49.000Z,4.30
2017-08-21T23:12:16.870Z,4.77
2017-08-21T23:14:44.764Z,4.30
2017-08-21T23:17:12.832Z,4.40
2017-08-21T23:19:40.561Z,4.10
2017-08-21T23:22:08.465Z,3.53
2017-08-21T23:24:36.429Z,4.20
2017-08-21T23:27:04.271Z,3.87
2017-08-21T23:29:32.165Z,4.00
2017-08-21T23:32:00.079Z,3.63
2017-08-21T23:34:27.900Z,3.83
2017-08-21T23:36:55.737Z,3.47
2017-08-21T23:39:23.634Z,3.40
2017-08-21T23:41:51.603Z,3.60
2017-08-21T23:44:19.539Z,3.30
2017-08-21T23:46:47.282Z,3.20
2017-08-21T23:49:15.306Z,3.90
2017-08-21T23:51:43.140Z,3.73
2017-08-21T23:54:11.040Z,2.53
2017-08-21T23:56:38.976Z,3.50
2017-08-21T23:59:06.966Z,3.77
